Time,TemperatureF,DewpointF,PressureIn,WindDirection,WindDirectionDegrees,WindSpeedMPH,WindSpeedGustMPH,Humidity,HourlyPrecipIn,Conditions,Clouds,dailyrainin,SoftwareType,DateUTC
2013-09-10 00:03:00,70.0,69.0,-100.00,South,180,1.0,2.0,97,-99.99,,,-99.99,,2013-09-10 05:03:00,
2013-09-10 00:10:00,68.0,67.0,-100.00,South,170,0.0,1.0,98,-99.99,,,-99.99,,2013-09-10 05:10:00,
2013-09-10 00:43:00,68.0,67.0,-100.00,South,170,0.0,1.0,98,-99.99,,,-99.99,,2013-09-10 05:43:00,
2013-09-10 00:53:00,68.0,67.0,-100.00,South,170,0.0,1.0,98,-99.99,,,-99.99,,2013-09-10 05:53:00,
2013-09-10 01:03:00,68.0,67.0,-100.00,South,170,0.0,1.0,98,-99.99,,,-99.99,,2013-09-10 06:03:00,
2013-09-10 01:43:00,66.0,66.0,-100.00,SSE,165,0.0,1.0,99,-99.99,,,-99.99,,2013-09-10 06:43:00,
2013-09-10 01:52:00,66.0,66.0,-100.00,SSE,165,0.0,1.0,99,-99.99,,,-99.99,,2013-09-10 06:52:00,
2013-09-10 02:01:00,66.0,66.0,-100.00,SSE,165,0.0,1.0,99,-99.99,,,-99.99,,2013-09-10 07:01:00,
2013-09-10 02:42:00,68.0,68.0,-100.00,South,175,2.0,6.0,99,-99.99,,,-99.99,,2013-09-10 07:42:00,
2013-09-10 02:52:00,68.0,68.0,-100.00,South,175,2.0,6.0,99,-99.99,,,-99.99,,2013-09-10 07:52:00,
2013-09-10 03:02:00,68.0,68.0,-100.00,South,175,2.0,6.0,99,-99.99,,,-99.99,,2013-09-10 08:02:00,
2013-09-10 03:10:00,69.0,68.0,-100.00,South,175,2.0,4.0,99,-99.99,,,-99.99,,2013-09-10 08:10:00,
2013-09-10 03:42:00,69.0,68.0,-100.00,South,175,2.0,4.0,99,-99.99,,,-99.99,,2013-09-10 08:42:00,
2013-09-10 03:52:00,69.0,68.0,-100.00,South,175,2.0,4.0,99,-99.99,,,-99.99,,2013-09-10 08:52:00,
2013-09-10 04:02:00,69.0,68.0,-100.00,South,175,2.0,4.0,99,-99.99,,,-99.99,,2013-09-10 09:02:00,
2013-09-10 04:11:00,69.0,69.0,-100.00,South,180,3.0,8.0,99,-99.99,,,-99.99,,2013-09-10 09:11:00,
2013-09-10 04:43:00,69.0,69.0,-100.00,South,180,3.0,8.0,99,-99.99,,,-99.99,,2013-09-10 09:43:00,
2013-09-10 04:54:00,69.0,69.0,-100.00,South,180,3.0,8.0,99,-99.99,,,-99.99,,2013-09-10 09:54:00,
2013-09-10 05:03:00,69.0,69.0,-100.00,South,180,3.0,8.0,99,-99.99,,,-99.99,,2013-09-10 10:03:00,
2013-09-10 05:10:00,68.0,67.0,-100.00,WSW,255,3.0,8.0,99,-99.99,,,-99.99,,2013-09-10 10:10:00,
2013-09-10 05:43:00,68.0,67.0,-100.00,WSW,255,3.0,8.0,99,-99.99,,,-99.99,,2013-09-10 10:43:00,
2013-09-10 05:53:00,68.0,67.0,-100.00,WSW,255,3.0,8.0,99,-99.99,,,-99.99,,2013-09-10 10:53:00,
2013-09-10 06:03:00,68.0,67.0,-100.00,WSW,255,3.0,8.0,99,-99.99,,,-99.99,,2013-09-10 11:03:00,
2013-09-10 06:42:00,68.0,67.0,-100.00,West,260,3.0,6.0,99,-99.99,,,-99.99,,2013-09-10 11:42:00,
2013-09-10 06:52:00,68.0,67.0,-100.00,West,260,3.0,6.0,99,-99.99,,,-99.99,,2013-09-10 11:52:00,
2013-09-10 07:02:00,68.0,67.0,-100.00,West,260,3.0,6.0,99,-99.99,,,-99.99,,2013-09-10 12:02:00,
2013-09-10 07:10:00,68.0,67.0,-100.00,West,260,1.0,7.0,99,-99.99,,,-99.99,,2013-09-10 12:10:00,
2013-09-10 07:42:00,68.0,67.0,-100.00,West,260,1.0,7.0,99,-99.99,,,-99.99,,2013-09-10 12:42:00,
2013-09-10 07:52:00,68.0,67.0,-100.00,West,260,1.0,7.0,99,-99.99,,,-99.99,,2013-09-10 12:52:00,
2013-09-10 08:01:00,68.0,67.0,-100.00,West,260,1.0,7.0,99,-99.99,,,-99.99,,2013-09-10 13:01:00,
2013-09-10 08:42:00,67.0,67.0,-100.00,WSW,240,3.0,7.0,99,-99.99,,,-99.99,,2013-09-10 13:42:00,
2013-09-10 08:52:00,67.0,67.0,-100.00,WSW,240,3.0,7.0,99,-99.99,,,-99.99,,2013-09-10 13:52:00,
2013-09-10 09:02:00,67.0,67.0,-100.00,WSW,240,3.0,7.0,99,-99.99,,,-99.99,,2013-09-10 14:02:00,
2013-09-10 09:11:00,67.0,67.0,-100.00,South,190,4.0,7.0,99,-99.99,,,-99.99,,2013-09-10 14:11:00,
2013-09-10 09:42:00,67.0,67.0,-100.00,South,190,4.0,7.0,99,-99.99,,,-99.99,,2013-09-10 14:42:00,
2013-09-10 09:52:00,67.0,67.0,-100.00,South,190,4.0,7.0,99,-99.99,,,-99.99,,2013-09-10 14:52:00,
2013-09-10 10:02:00,67.0,67.0,-100.00,South,190,4.0,7.0,99,-99.99,,,-99.99,,2013-09-10 15:02:00,
2013-09-10 10:43:00,68.0,68.0,-100.00,WSW,245,4.0,7.0,99,-99.99,,,-99.99,,2013-09-10 15:43:00,
2013-09-10 10:54:00,68.0,68.0,-100.00,WSW,245,4.0,7.0,99,-99.99,,,-99.99,,2013-09-10 15:54:00,
2013-09-10 11:03:00,68.0,68.0,-100.00,WSW,245,4.0,7.0,99,-99.99,,,-99.99,,2013-09-10 16:03:00,
2013-09-10 11:43:00,69.0,68.0,-100.00,WNW,285,5.0,13.0,95,-99.99,,,-99.99,,2013-09-10 16:43:00,
2013-09-10 11:53:00,69.0,68.0,-100.00,WNW,285,5.0,13.0,95,-99.99,,,-99.99,,2013-09-10 16:53:00,
2013-09-10 12:03:00,69.0,68.0,-100.00,WNW,285,5.0,13.0,95,-99.99,,,-99.99,,2013-09-10 17:03:00,
2013-09-10 12:43:00,71.0,66.0,-100.00,SW,220,4.0,7.0,84,-99.99,,,-99.99,,2013-09-10 17:43:00,
2013-09-10 12:53:00,71.0,66.0,-100.00,SW,220,4.0,7.0,84,-99.99,,,-99.99,,2013-09-10 17:53:00,
2013-09-10 13:02:00,71.0,66.0,-100.00,SW,220,4.0,7.0,84,-99.99,,,-99.99,,2013-09-10 18:02:00,
2013-09-10 13:11:00,71.0,65.0,-100.00,South,175,4.0,9.0,84,-99.99,,,-99.99,,2013-09-10 18:11:00,
2013-09-10 13:43:00,71.0,65.0,-100.00,South,175,4.0,9.0,84,-99.99,,,-99.99,,2013-09-10 18:43:00,
2013-09-10 13:52:00,71.0,65.0,-100.00,South,175,4.0,9.0,84,-99.99,,,-99.99,,2013-09-10 18:52:00,
2013-09-10 14:02:00,71.0,65.0,-100.00,South,175,4.0,9.0,84,-99.99,,,-99.99,,2013-09-10 19:02:00,
2013-09-10 14:42:00,73.0,63.0,-100.00,NW,320,3.0,9.0,71,-99.99,,,-99.99,,2013-09-10 19:42:00,
2013-09-10 14:52:00,73.0,63.0,-100.00,NW,320,3.0,9.0,71,-99.99,,,-99.99,,2013-09-10 19:52:00,
2013-09-10 15:02:00,73.0,63.0,-100.00,NW,320,3.0,9.0,71,-99.99,,,-99.99,,2013-09-10 20:02:00,
2013-09-10 15:42:00,74.0,63.0,-100.00,SW,220,3.0,12.0,68,-99.99,,,-99.99,,2013-09-10 20:42:00,
2013-09-10 15:52:00,74.0,63.0,-100.00,SW,220,3.0,12.0,68,-99.99,,,-99.99,,2013-09-10 20:52:00,
2013-09-10 16:02:00,74.0,63.0,-100.00,SW,220,3.0,12.0,68,-99.99,,,-99.99,,2013-09-10 21:02:00,
2013-09-10 16:10:00,75.0,63.0,-100.00,SW,235,4.0,12.0,66,-99.99,,,-99.99,,2013-09-10 21:10:00,
2013-09-10 16:11:00,74.0,63.0,-100.00,SW,220,3.0,12.0,68,-99.99,,,-99.99,,2013-09-10 21:11:00,
2013-09-10 16:44:00,75.0,63.0,-100.00,SW,235,4.0,12.0,66,-99.99,,,-99.99,,2013-09-10 21:44:00,
2013-09-10 16:54:00,75.0,63.0,-100.00,SW,235,4.0,12.0,66,-99.99,,,-99.99,,2013-09-10 21:54:00,
2013-09-10 17:04:00,75.0,63.0,-100.00,SW,235,4.0,12.0,66,-99.99,,,-99.99,,2013-09-10 22:04:00,
2013-09-10 17:42:00,77.0,63.0,-100.00,South,175,2.0,9.0,62,-99.99,,,-99.99,,2013-09-10 22:42:00,
2013-09-10 17:54:00,77.0,63.0,-100.00,South,175,2.0,9.0,62,-99.99,,,-99.99,,2013-09-10 22:54:00,
2013-09-10 18:03:00,77.0,63.0,-100.00,South,175,2.0,9.0,62,-99.99,,,-99.99,,2013-09-10 23:03:00,
2013-09-10 18:42:00,74.0,63.0,-100.00,South,175,3.0,6.0,67,-99.99,,,-99.99,,2013-09-10 23:42:00,
2013-09-10 18:53:00,74.0,63.0,-100.00,South,175,3.0,6.0,67,-99.99,,,-99.99,,2013-09-10 23:53:00,
2013-09-10 19:02:00,74.0,63.0,-100.00,South,175,3.0,6.0,67,-99.99,,,-99.99,,2013-09-11 00:02:00,
2013-09-10 19:42:00,71.0,67.0,-100.00,South,180,1.0,1.0,86,-99.99,,,-99.99,,2013-09-11 00:42:00,
2013-09-10 19:52:00,71.0,67.0,-100.00,South,180,1.0,1.0,86,-99.99,,,-99.99,,2013-09-11 00:52:00,
2013-09-10 20:02:00,71.0,67.0,-100.00,South,180,1.0,1.0,86,-99.99,,,-99.99,,2013-09-11 01:02:00,
2013-09-10 20:42:00,68.0,66.0,-100.00,South,175,2.0,4.0,94,-99.99,,,-99.99,,2013-09-11 01:42:00,
2013-09-10 20:53:00,68.0,66.0,-100.00,South,175,2.0,4.0,94,-99.99,,,-99.99,,2013-09-11 01:53:00,
2013-09-10 21:02:00,68.0,66.0,-100.00,South,175,2.0,4.0,94,-99.99,,,-99.99,,2013-09-11 02:02:00,
2013-09-10 21:10:00,65.0,63.0,-100.00,SSE,160,2.0,3.0,96,-99.99,,,-99.99,,2013-09-11 02:10:00,
2013-09-10 21:43:00,65.0,63.0,-100.00,SSE,160,2.0,3.0,96,-99.99,,,-99.99,,2013-09-11 02:43:00,
2013-09-10 21:52:00,65.0,63.0,-100.00,SSE,160,2.0,3.0,96,-99.99,,,-99.99,,2013-09-11 02:52:00,
2013-09-10 22:02:00,65.0,63.0,-100.00,SSE,160,2.0,3.0,96,-99.99,,,-99.99,,2013-09-11 03:02:00,
2013-09-10 22:10:00,65.0,65.0,-100.00,South,175,1.0,3.0,98,-99.99,,,-99.99,,2013-09-11 03:10:00,
2013-09-10 22:45:00,65.0,65.0,-100.00,South,175,1.0,3.0,98,-99.99,,,-99.99,,2013-09-11 03:45:00,
2013-09-10 22:55:00,65.0,65.0,-100.00,South,175,1.0,3.0,98,-99.99,,,-99.99,,2013-09-11 03:55:00,
2013-09-10 23:04:00,65.0,65.0,-100.00,South,175,1.0,3.0,98,-99.99,,,-99.99,,2013-09-11 04:04:00,
2013-09-10 23:10:00,63.0,62.0,-100.00,SE,125,0.0,1.0,98,-99.99,,,-99.99,,2013-09-11 04:10:00,
2013-09-10 23:44:00,63.0,62.0,-100.00,SE,125,0.0,1.0,98,-99.99,,,-99.99,,2013-09-11 04:44:00,
2013-09-10 23:54:00,63.0,62.0,-100.00,SE,125,0.0,1.0,98,-99.99,,,-99.99,,2013-09-11 04:54:00,